sensor_id;sensor_type;location;lat;lon;timestamp;pressure;altitude;pressure_sealevel;temperature;humidity
13068;BME280;6600;51.362;6.686;2023-02-21T00:02:35;101668.53;;;9.17;100.00
13068;BME280;6600;51.362;6.686;2023-02-21T00:05:19;101660.19;;;9.20;100.00
13068;BME280;6600;51.362;6.686;2023-02-21T00:08:03;101662.56;;;9.15;100.00
13068;BME280;6600;51.362;6.686;2023-02-21T00:10:47;101666.53;;;9.19;100.00
13068;BME280;6600;51.362;6.686;2023-02-21T00:13:35;101663.66;;;9.21;100.00
13068;BME280;6600;51.362;6.686;2023-02-21T00:16:19;101665.25;;;9.15;100.00
13068;BME280;6600;51.362;6.686;2023-02-21T00:19:03;101669.47;;;9.24;100.00
13068;BME280;6600;51.362;6.686;2023-02-21T00:21:47;101661.81;;;9.21;100.00
13068;BME280;6600;51.362;6.686;2023-02-21T00:24:31;101661.56;;;9.16;100.00
13068;BME280;6600;51.362;6.686;2023-02-21T00:27:15;101662.56;;;9.15;100.00
13068;BME280;6600;51.362;6.686;2023-02-21T00:29:59;101663.19;;;9.17;100.00
13068;BME280;6600;51.362;6.686;2023-02-21T00:32:43;101660.25;;;9.12;100.00
13068;BME280;6600;51.362;6.686;2023-02-21T00:35:27;101662.19;;;9.18;100.00
13068;BME280;6600;51.362;6.686;2023-02-21T00:38:11;101660.53;;;9.17;100.00
13068;BME280;6600;51.362;6.686;2023-02-21T00:40:55;101659.72;;;9.17;100.00
13068;BME280;6600;51.362;6.686;2023-02-21T00:43:39;101662.19;;;9.18;100.00
13068;BME280;6600;51.362;6.686;2023-02-21T00:46:23;101663.66;;;9.21;100.00
13068;BME280;6600;51.362;6.686;2023-02-21T00:49:07;101670.94;;;9.12;100.00
13068;BME280;6600;51.362;6.686;2023-02-21T00:51:51;101665.25;;;9.15;100.00
13068;BME280;6600;51.362;6.686;2023-02-21T00:54:35;101655.91;;;9.11;100.00
13068;BME280;6600;51.362;6.686;2023-02-21T00:57:19;101658.22;;;9.14;100.00
13068;BME280;6600;51.362;6.686;2023-02-21T01:00:06;101656.94;;;9.10;100.00
13068;BME280;6600;51.362;6.686;2023-02-21T01:02:51;101658.97;;;9.08;100.00
13068;BME280;6600;51.362;6.686;2023-02-21T01:05:35;101665.59;;;9.12;100.00
13068;BME280;6600;51.362;6.686;2023-02-21T01:08:19;101659.25;;;9.13;100.00
13068;BME280;6600;51.362;6.686;2023-02-21T01:11:03;101656.94;;;9.10;100.00
13068;BME280;6600;51.362;6.686;2023-02-21T01:13:47;101650.31;;;9.06;100.00
13068;BME280;6600;51.362;6.686;2023-02-21T01:16:32;101647.91;;;9.11;100.00
13068;BME280;6600;51.362;6.686;2023-02-21T01:19:16;101637.19;;;9.11;100.00
13068;BME280;6600;51.362;6.686;2023-02-21T01:22:02;101642.38;;;9.12;100.00
13068;BME280;6600;51.362;6.686;2023-02-21T01:24:48;101644.59;;;9.09;100.00
13068;BME280;6600;51.362;6.686;2023-02-21T01:27:33;101641.63;;;9.04;100.00
13068;BME280;6600;51.362;6.686;2023-02-21T01:30:17;101643.28;;;9.05;100.00
13068;BME280;6600;51.362;6.686;2023-02-21T01:33:01;101639.78;;;9.04;100.00
13068;BME280;6600;51.362;6.686;2023-02-21T01:35:44;101630.47;;;9.00;100.00
13068;BME280;6600;51.362;6.686;2023-02-21T01:38:32;101625.56;;;9.04;100.00
13068;BME280;6600;51.362;6.686;2023-02-21T01:41:17;101633.91;;;9.09;100.00
13068;BME280;6600;51.362;6.686;2023-02-21T01:44:20;101632.59;;;9.05;100.00
13068;BME280;6600;51.362;6.686;2023-02-21T01:47:13;101625.94;;;9.01;100.00
13068;BME280;6600;51.362;6.686;2023-02-21T01:49:58;101624.56;;;9.05;100.00
13068;BME280;6600;51.362;6.686;2023-02-21T01:52:44;101632.22;;;9.08;100.00
13068;BME280;6600;51.362;6.686;2023-02-21T01:55:28;101628.53;;;9.09;100.00
13068;BME280;6600;51.362;6.686;2023-02-21T01:58:12;101630.38;;;9.08;100.00
13068;BME280;6600;51.362;6.686;2023-02-21T02:00:57;101625.56;;;9.04;100.00
13068;BME280;6600;51.362;6.686;2023-02-21T02:03:41;101619.31;;;8.97;100.00
13068;BME280;6600;51.362;6.686;2023-02-21T02:06:25;101621.59;;;9.00;100.00
13068;BME280;6600;51.362;6.686;2023-02-21T02:09:20;101626.41;;;9.04;100.00
13068;BME280;6600;51.362;6.686;2023-02-21T02:12:12;101628.63;;;9.01;100.00
13068;BME280;6600;51.362;6.686;2023-02-21T02:37:02;101611.84;;;8.92;100.00
13068;BME280;6600;51.362;6.686;2023-02-21T02:39:46;101609.44;;;8.97;100.00
13068;BME280;6600;51.362;6.686;2023-02-21T02:42:28;101603.63;;;8.94;100.00
13068;BME280;6600;51.362;6.686;2023-02-21T02:45:24;101601.25;;;8.99;100.00
13068;BME280;6600;51.362;6.686;2023-02-21T02:47:55;101616.38;;;8.92;100.00
13068;BME280;6600;51.362;6.686;2023-02-21T02:50:23;101606.78;;;8.97;100.00
13068;BME280;6600;51.362;6.686;2023-02-21T02:52:54;101613.97;;;8.97;100.00
13068;BME280;6600;51.362;6.686;2023-02-21T02:55:32;101600.88;;;9.02;100.00
13068;BME280;6600;51.362;6.686;2023-02-21T02:57:59;101600.41;;;8.98;100.00
13068;BME280;6600;51.362;6.686;2023-02-21T03:00:26;101596.81;;;8.91;100.00
13068;BME280;6600;51.362;6.686;2023-02-21T03:06:12;101603.63;;;8.94;100.00
13068;BME280;6600;51.362;6.686;2023-02-21T03:12:17;101590.00;;;8.89;100.00
13068;BME280;6600;51.362;6.686;2023-02-21T03:14:50;101594.41;;;8.82;100.00
13068;BME280;6600;51.362;6.686;2023-02-21T03:17:22;101582.81;;;8.75;100.00
13068;BME280;6600;51.362;6.686;2023-02-21T03:19:51;101587.41;;;8.81;100.00
13068;BME280;6600;51.362;6.686;2023-02-21T03:22:21;101592.59;;;8.82;100.00
13068;BME280;6600;51.362;6.686;2023-02-21T03:24:48;101594.41;;;8.82;100.00
13068;BME280;6600;51.362;6.686;2023-02-21T03:27:17;101599.56;;;8.83;100.00
13068;BME280;6600;51.362;6.686;2023-02-21T03:29:44;101599.41;;;8.85;100.00
13068;BME280;6600;51.362;6.686;2023-02-21T03:32:13;101595.72;;;8.86;100.00
13068;BME280;6600;51.362;6.686;2023-02-21T03:34:42;101588.72;;;8.85;100.00
13068;BME280;6600;51.362;6.686;2023-02-21T03:37:17;101587.88;;;8.84;100.00
13068;BME280;6600;51.362;6.686;2023-02-21T03:39:42;101588.59;;;8.78;100.00
13068;BME280;6600;51.362;6.686;2023-02-21T03:42:08;101586.56;;;8.80;100.00
13068;BME280;6600;51.362;6.686;2023-02-21T03:44:33;101585.75;;;8.80;100.00
13068;BME280;6600;51.362;6.686;2023-02-21T03:46:58;101594.31;;;8.75;100.00
13068;BME280;6600;51.362;6.686;2023-02-21T03:49:24;101589.78;;;8.76;100.00
13068;BME280;6600;51.362;6.686;2023-02-21T03:51:49;101592.19;;;8.71;100.00
13068;BME280;6600;51.362;6.686;2023-02-21T03:54:14;101595.50;;;8.73;100.00
13068;BME280;6600;51.362;6.686;2023-02-21T03:56:39;101600.19;;;8.71;100.00
13068;BME280;6600;51.362;6.686;2023-02-21T03:59:05;101603.50;;;8.73;100.00
13068;BME280;6600;51.362;6.686;2023-02-21T04:01:30;101602.41;;;8.67;100.00
13068;BME280;6600;51.362;6.686;2023-02-21T04:03:56;101601.94;;;8.63;100.00
13068;BME280;6600;51.362;6.686;2023-02-21T04:06:21;101602.25;;;8.69;100.00
13068;BME280;6600;51.362;6.686;2023-02-21T04:08:46;101604.06;;;8.68;100.00
13068;BME280;6600;51.362;6.686;2023-02-21T04:11:16;101599.56;;;8.69;100.00
13068;BME280;6600;51.362;6.686;2023-02-21T04:13:42;101606.19;;;8.73;100.00
13068;BME280;6600;51.362;6.686;2023-02-21T04:16:07;101588.22;;;8.67;100.00
13068;BME280;6600;51.362;6.686;2023-02-21T04:18:33;101597.53;;;8.71;100.00
13068;BME280;6600;51.362;6.686;2023-02-21T04:20:58;101596.22;;;8.67;100.00
13068;BME280;6600;51.362;6.686;2023-02-21T04:23:23;101594.56;;;8.66;100.00
13068;BME280;6600;51.362;6.686;2023-02-21T04:25:48;101587.22;;;8.68;100.00
13068;BME280;6600;51.362;6.686;2023-02-21T04:28:14;101588.16;;;8.75;100.00
13068;BME280;6600;51.362;6.686;2023-02-21T04:30:39;101587.84;;;8.70;100.00
13068;BME280;6600;51.362;6.686;2023-02-21T04:33:04;101595.31;;;8.74;100.00
13068;BME280;6600;51.362;6.686;2023-02-21T04:35:30;101594.13;;;8.77;100.00
13068;BME280;6600;51.362;6.686;2023-02-21T04:37:55;101593.50;;;8.75;100.00
13068;BME280;6600;51.362;6.686;2023-02-21T04:40:21;101591.81;;;8.74;100.00
13068;BME280;6600;51.362;6.686;2023-02-21T04:42:46;101589.69;;;8.69;100.00
13068;BME280;6600;51.362;6.686;2023-02-21T04:45:12;101592.19;;;8.71;100.00
13068;BME280;6600;51.362;6.686;2023-02-21T04:47:37;101588.16;;;8.75;100.00
13068;BME280;6600;51.362;6.686;2023-02-21T04:50:04;101591.44;;;8.77;100.00
13068;BME280;6600;51.362;6.686;2023-02-21T04:52:29;101587.78;;;8.78;100.00
13068;BME280;6600;51.362;6.686;2023-02-21T04:54:55;101580.75;;;8.77;100.00
13068;BME280;6600;51.362;6.686;2023-02-21T04:57:20;101590.63;;;8.76;100.00
13068;BME280;6600;51.362;6.686;2023-02-21T04:59:46;101585.47;;;8.75;100.00
13068;BME280;6600;51.362;6.686;2023-02-21T05:02:11;101584.81;;;8.73;100.00
13068;BME280;6600;51.362;6.686;2023-02-21T05:04:37;101585.00;;;8.71;100.00
13068;BME280;6600;51.362;6.686;2023-02-21T05:07:03;101577.47;;;8.75;100.00
13068;BME280;6600;51.362;6.686;2023-02-21T05:09:28;101587.31;;;8.74;100.00
13068;BME280;6600;51.362;6.686;2023-02-21T05:11:54;101587.22;;;8.68;100.00
13068;BME280;6600;51.362;6.686;2023-02-21T05:14:19;101587.69;;;8.71;100.00
13068;BME280;6600;51.362;6.686;2023-02-21T05:16:45;101593.03;;;8.71;100.00
13068;BME280;6600;51.362;6.686;2023-02-21T05:19:10;101589.50;;;8.71;100.00
13068;BME280;6600;51.362;6.686;2023-02-21T05:21:36;101596.69;;;8.70;100.00
13068;BME280;6600;51.362;6.686;2023-02-21T05:24:06;101591.81;;;8.74;100.00
13068;BME280;6600;51.362;6.686;2023-02-21T05:26:34;101591.81;;;8.74;100.00
13068;BME280;6600;51.362;6.686;2023-02-21T05:29:00;101587.84;;;8.70;100.00
13068;BME280;6600;51.362;6.686;2023-02-21T05:31:26;101586.84;;;8.71;100.00
13068;BME280;6600;51.362;6.686;2023-02-21T05:33:52;101585.63;;;8.73;100.00
13068;BME280;6600;51.362;6.686;2023-02-21T05:36:17;101590.97;;;8.73;100.00
13068;BME280;6600;51.362;6.686;2023-02-21T05:38:47;101589.16;;;8.74;100.00
13068;BME280;6600;51.362;6.686;2023-02-21T05:41:14;101586.47;;;8.74;100.00
13068;BME280;6600;51.362;6.686;2023-02-21T05:43:42;101588.16;;;8.75;100.00
13068;BME280;6600;51.362;6.686;2023-02-21T05:48:42;101587.22;;;8.68;100.00
13068;BME280;6600;51.362;6.686;2023-02-21T05:51:08;101584.91;;;8.65;100.00
13068;BME280;6600;51.362;6.686;2023-02-21T05:53:33;101583.53;;;8.69;100.00
13068;BME280;6600;51.362;6.686;2023-02-21T05:55:58;101578.06;;;8.62;100.00
13068;BME280;6600;51.362;6.686;2023-02-21T05:58:24;101584.53;;;8.68;100.00
13068;BME280;6600;51.362;6.686;2023-02-21T06:00:50;101577.81;;;8.72;100.00
13068;BME280;6600;51.362;6.686;2023-02-21T06:03:15;101584.16;;;8.71;100.00
13068;BME280;6600;51.362;6.686;2023-02-21T06:05:40;101578.53;;;8.66;100.00
13068;BME280;6600;51.362;6.686;2023-02-21T06:08:06;101573.56;;;8.62;100.00
13068;BME280;6600;51.362;6.686;2023-02-21T06:10:31;101582.03;;;8.66;100.00
13068;BME280;6600;51.362;6.686;2023-02-21T06:12:56;101585.91;;;8.63;100.00
13068;BME280;6600;51.362;6.686;2023-02-21T06:15:22;101582.59;;;8.61;100.00
13068;BME280;6600;51.362;6.686;2023-02-21T06:17:47;101573.91;;;8.59;100.00
13068;BME280;6600;51.362;6.686;2023-02-21T06:20:13;101583.25;;;8.63;100.00
13068;BME280;6600;51.362;6.686;2023-02-21T06:22:39;101584.25;;;8.62;100.00
13068;BME280;6600;51.362;6.686;2023-02-21T06:25:05;101580.47;;;8.57;100.00
13068;BME280;6600;51.362;6.686;2023-02-21T06:27:30;101581.31;;;8.57;100.00
13068;BME280;6600;51.362;6.686;2023-02-21T06:29:55;101577.78;;;8.57;100.00
13068;BME280;6600;51.362;6.686;2023-02-21T06:32:21;101577.53;;;8.67;100.00
13068;BME280;6600;51.362;6.686;2023-02-21T06:34:46;101582.59;;;8.61;100.00
13068;BME280;6600;51.362;6.686;2023-02-21T06:37:11;101585.91;;;8.63;100.00
13068;BME280;6600;51.362;6.686;2023-02-21T06:39:38;101578.06;;;8.62;100.00
13068;BME280;6600;51.362;6.686;2023-02-21T06:42:03;101587.00;;;8.54;100.00
13068;BME280;6600;51.362;6.686;2023-02-21T06:44:28;101583.97;;;8.57;100.00
13068;BME280;6600;51.362;6.686;2023-02-21T06:46:54;101580.00;;;8.53;100.00
13068;BME280;6600;51.362;6.686;2023-02-21T06:49:20;101588.28;;;8.58;100.00
13068;BME280;6600;51.362;6.686;2023-02-21T06:51:45;101594.94;;;8.62;100.00
13068;BME280;6600;51.362;6.686;2023-02-21T06:54:11;101595.28;;;8.59;100.00
13068;BME280;6600;51.362;6.686;2023-02-21T06:56:37;101596.84;;;8.54;100.00
13068;BME280;6600;51.362;6.686;2023-02-21T06:59:03;101599.06;;;8.50;100.00
13068;BME280;6600;51.362;6.686;2023-02-21T07:01:29;101597.22;;;8.66;100.00
13068;BME280;6600;51.362;6.686;2023-02-21T07:03:55;101598.91;;;8.67;100.00
13068;BME280;6600;51.362;6.686;2023-02-21T07:06:21;101604.91;;;8.69;100.00
13068;BME280;6600;51.362;6.686;2023-02-21T07:08:47;101597.53;;;8.71;100.00
13068;BME280;6600;51.362;6.686;2023-02-21T07:11:12;101592.25;;;8.62;100.00
13068;BME280;6600;51.362;6.686;2023-02-21T07:13:38;101584.06;;;8.64;100.00
13068;BME280;6600;51.362;6.686;2023-02-21T07:16:04;101590.88;;;8.67;100.00
13068;BME280;6600;51.362;6.686;2023-02-21T07:18:29;101594.34;;;8.52;100.00
13068;BME280;6600;51.362;6.686;2023-02-21T07:20:55;101600.16;;;8.56;100.00
13068;BME280;6600;51.362;6.686;2023-02-21T07:23:20;101586.16;;;8.54;100.00
13068;BME280;6600;51.362;6.686;2023-02-21T07:25:45;101596.97;;;8.60;100.00
13068;BME280;6600;51.362;6.686;2023-02-21T07:28:11;101595.97;;;8.61;100.00
13068;BME280;6600;51.362;6.686;2023-02-21T07:30:36;101600.28;;;8.62;100.00
13068;BME280;6600;51.362;6.686;2023-02-21T07:33:01;101606.97;;;8.58;100.00
13068;BME280;6600;51.362;6.686;2023-02-21T07:35:27;101602.00;;;8.55;100.00
13068;BME280;6600;51.362;6.686;2023-02-21T07:37:52;101605.25;;;8.51;100.00
13068;BME280;6600;51.362;6.686;2023-02-21T07:40:17;101600.91;;;8.50;100.00
13068;BME280;6600;51.362;6.686;2023-02-21T07:42:43;101611.75;;;8.48;100.00
13068;BME280;6600;51.362;6.686;2023-02-21T07:45:10;101612.22;;;8.52;100.00
13068;BME280;6600;51.362;6.686;2023-02-21T07:47:36;101608.44;;;8.46;100.00
13068;BME280;6600;51.362;6.686;2023-02-21T07:50:01;101602.25;;;8.46;100.00
13068;BME280;6600;51.362;6.686;2023-02-21T07:52:26;101611.75;;;8.48;100.00
13068;BME280;6600;51.362;6.686;2023-02-21T07:54:52;101602.47;;;8.44;100.00
13068;BME280;6600;51.362;6.686;2023-02-21T07:57:17;101609.06;;;8.48;100.00
13068;BME280;6600;51.362;6.686;2023-02-21T07:59:43;101605.41;;;8.49;100.00
13068;BME280;6600;51.362;6.686;2023-02-21T08:02:10;101610.38;;;8.52;100.00
13068;BME280;6600;51.362;6.686;2023-02-21T08:04:36;101605.75;;;8.46;100.00
13068;BME280;6600;51.362;6.686;2023-02-21T08:07:02;101601.25;;;8.47;100.00
13068;BME280;6600;51.362;6.686;2023-02-21T08:09:28;101604.56;;;8.49;100.00
13068;BME280;6600;51.362;6.686;2023-02-21T08:11:53;101614.78;;;8.45;100.00
13068;BME280;6600;51.362;6.686;2023-02-21T08:14:19;101616.44;;;8.46;100.00
13068;BME280;6600;51.362;6.686;2023-02-21T08:16:44;101618.75;;;8.49;100.00
13068;BME280;6600;51.362;6.686;2023-02-21T08:19:09;101614.09;;;8.51;100.00
13068;BME280;6600;51.362;6.686;2023-02-21T08:21:35;101621.91;;;8.53;100.00
13068;BME280;6600;51.362;6.686;2023-02-21T08:24:00;101621.44;;;8.49;100.00
13068;BME280;6600;51.362;6.686;2023-02-21T08:26:26;101609.06;;;8.48;100.00
13068;BME280;6600;51.362;6.686;2023-02-21T08:28:51;101611.56;;;8.50;100.00
13068;BME280;6600;51.362;6.686;2023-02-21T08:31:17;101605.88;;;8.53;100.00
13068;BME280;6600;51.362;6.686;2023-02-21T08:33:43;101614.09;;;8.51;100.00
13068;BME280;6600;51.362;6.686;2023-02-21T08:36:08;101618.69;;;8.57;100.00
13068;BME280;6600;51.362;6.686;2023-02-21T08:38:34;101617.88;;;8.57;100.00
13068;BME280;6600;51.362;6.686;2023-02-21T08:40:59;101621.44;;;8.49;100.00
13068;BME280;6600;51.362;6.686;2023-02-21T08:43:24;101612.06;;;8.53;100.00
13068;BME280;6600;51.362;6.686;2023-02-21T08:45:50;101613.06;;;8.52;100.00
13068;BME280;6600;51.362;6.686;2023-02-21T08:48:15;101619.44;;;8.51;100.00
13068;BME280;6600;51.362;6.686;2023-02-21T08:50:41;101619.44;;;8.51;100.00
13068;BME280;6600;51.362;6.686;2023-02-21T08:53:06;101618.34;;;8.60;100.00
13068;BME280;6600;51.362;6.686;2023-02-21T08:55:31;101620.63;;;8.63;100.00
13068;BME280;6600;51.362;6.686;2023-02-21T08:57:57;101610.59;;;8.66;100.00
13068;BME280;6600;51.362;6.686;2023-02-21T09:00:24;101613.94;;;8.68;100.00
13068;BME280;6600;51.362;6.686;2023-02-21T09:02:52;101613.00;;;8.60;100.00
13068;BME280;6600;51.362;6.686;2023-02-21T09:05:26;101608.22;;;8.71;100.00
13068;BME280;6600;51.362;6.686;2023-02-21T09:07:54;101609.78;;;8.65;100.00
13068;BME280;6600;51.362;6.686;2023-02-21T09:10:24;101610.94;;;8.62;100.00
13068;BME280;6600;51.362;6.686;2023-02-21T09:12:49;101606.28;;;8.65;100.00
13068;BME280;6600;51.362;6.686;2023-02-21T09:15:15;101601.88;;;8.72;100.00
13068;BME280;6600;51.362;6.686;2023-02-21T09:17:41;101604.91;;;8.69;100.00
13068;BME280;6600;51.362;6.686;2023-02-21T09:20:09;101604.19;;;8.75;100.00
13068;BME280;6600;51.362;6.686;2023-02-21T09:22:35;101602.50;;;8.74;100.00
13068;BME280;6600;51.362;6.686;2023-02-21T09:25:01;101605.81;;;8.76;100.00
13068;BME280;6600;51.362;6.686;2023-02-21T09:27:27;101600.13;;;8.79;100.00
13068;BME280;6600;51.362;6.686;2023-02-21T09:30:07;101595.72;;;8.86;100.00
13068;BME280;6600;51.362;6.686;2023-02-21T09:32:34;101595.13;;;8.76;100.00
13068;BME280;6600;51.362;6.686;2023-02-21T09:35:01;101592.38;;;8.84;100.00
13068;BME280;6600;51.362;6.686;2023-02-21T09:37:26;101591.38;;;8.85;100.00
13068;BME280;6600;51.362;6.686;2023-02-21T09:39:52;101587.59;;;8.94;100.00
13068;BME280;6600;51.362;6.686;2023-02-21T09:42:18;101584.94;;;8.94;100.00
13068;BME280;6600;51.362;6.686;2023-02-21T09:44:46;101587.22;;;8.97;100.00
13068;BME280;6600;51.362;6.686;2023-02-21T09:47:31;101582.81;;;9.04;100.00
13068;BME280;6600;51.362;6.686;2023-02-21T09:50:00;101582.16;;;9.02;100.00
13068;BME280;6600;51.362;6.686;2023-02-21T09:52:36;101584.19;;;9.00;100.00
13068;BME280;6600;51.362;6.686;2023-02-21T09:57:37;101596.84;;;9.06;100.00
13068;BME280;6600;51.362;6.686;2023-02-21T10:00:20;101596.84;;;9.06;100.00
13068;BME280;6600;51.362;6.686;2023-02-21T10:05:23;101598.84;;;9.04;100.00
13068;BME280;6600;51.362;6.686;2023-02-21T10:08:01;101593.78;;;9.09;100.00
13068;BME280;6600;51.362;6.686;2023-02-21T10:10:41;101590.75;;;9.12;100.00
13068;BME280;6600;51.362;6.686;2023-02-21T10:13:25;101589.00;;;9.19;100.00
13068;BME280;6600;51.362;6.686;2023-02-21T10:16:15;101587.22;;;9.11;100.00
13068;BME280;6600;51.362;6.686;2023-02-21T10:21:46;101585.94;;;9.22;100.00
13068;BME280;6600;51.362;6.686;2023-02-21T10:24:22;101584.66;;;9.18;100.00
13068;BME280;6600;51.362;6.686;2023-02-21T10:26:56;101585.19;;;9.28;100.00
13068;BME280;6600;51.362;6.686;2023-02-21T10:29:26;101585.41;;;9.27;100.00
13068;BME280;6600;51.362;6.686;2023-02-21T10:31:59;101584.75;;;9.25;100.00
13068;BME280;6600;51.362;6.686;2023-02-21T10:34:28;101582.16;;;9.31;100.00
13068;BME280;6600;51.362;6.686;2023-02-21T10:36:57;101593.03;;;9.30;100.00
13068;BME280;6600;51.362;6.686;2023-02-21T10:39:35;101584.72;;;9.39;100.00
13068;BME280;6600;51.362;6.686;2023-02-21T10:42:04;101588.69;;;9.43;100.00
13068;BME280;6600;51.362;6.686;2023-02-21T10:44:31;101584.81;;;9.46;100.00
13068;BME280;6600;51.362;6.686;2023-02-21T10:47:04;101591.44;;;9.64;100.00
13068;BME280;6600;51.362;6.686;2023-02-21T10:49:45;101591.50;;;9.71;100.00
13068;BME280;6600;51.362;6.686;2023-02-21T10:52:13;101589.38;;;9.67;100.00
13068;BME280;6600;51.362;6.686;2023-02-21T10:54:41;101580.91;;;9.63;100.00
13068;BME280;6600;51.362;6.686;2023-02-21T10:57:09;101586.19;;;9.56;100.00
13068;BME280;6600;51.362;6.686;2023-02-21T10:59:40;101589.22;;;9.68;100.00
13068;BME280;6600;51.362;6.686;2023-02-21T11:02:32;101585.56;;;9.76;100.00
13068;BME280;6600;51.362;6.686;2023-02-21T11:05:14;101579.72;;;9.87;100.00
13068;BME280;6600;51.362;6.686;2023-02-21T11:07:54;101579.00;;;9.93;100.00
13068;BME280;6600;51.362;6.686;2023-02-21T11:10:28;101577.84;;;10.02;100.00
13068;BME280;6600;51.362;6.686;2023-02-21T11:13:14;101577.94;;;9.94;100.00
13068;BME280;6600;51.362;6.686;2023-02-21T11:15:40;101586.25;;;9.99;100.00
13068;BME280;6600;51.362;6.686;2023-02-21T11:18:21;101574.88;;;9.97;100.00
13068;BME280;6600;51.362;6.686;2023-02-21T11:20:49;101578.16;;;9.92;100.00
13068;BME280;6600;51.362;6.686;2023-02-21T11:23:26;101571.13;;;9.91;100.00
13068;BME280;6600;51.362;6.686;2023-02-21T11:26:09;101572.34;;;9.89;100.00
13068;BME280;6600;51.362;6.686;2023-02-21T11:28:40;101575.25;;;9.94;100.00
13068;BME280;6600;51.362;6.686;2023-02-21T11:31:27;101566.03;;;9.96;100.00
13068;BME280;6600;51.362;6.686;2023-02-21T11:34:03;101568.91;;;9.95;100.00
13068;BME280;6600;51.362;6.686;2023-02-21T11:36:32;101552.72;;;10.03;100.00
13068;BME280;6600;51.362;6.686;2023-02-21T11:41:53;101558.81;;;9.97;100.00
13068;BME280;6600;51.362;6.686;2023-02-21T11:46:54;101553.09;;;10.00;100.00
13068;BME280;6600;51.362;6.686;2023-02-21T11:49:30;101545.19;;;9.92;100.00
13068;BME280;6600;51.362;6.686;2023-02-21T11:52:01;101538.16;;;9.91;100.00
13068;BME280;6600;51.362;6.686;2023-02-21T11:54:29;101543.19;;;10.00;100.00
13068;BME280;6600;51.362;6.686;2023-02-21T11:57:06;101534.28;;;9.93;100.00
13068;BME280;6600;51.362;6.686;2023-02-21T12:02:44;101531.16;;;9.90;100.00
13068;BME280;6600;51.362;6.686;2023-02-21T12:05:44;101529.13;;;9.92;100.00
13068;BME280;6600;51.362;6.686;2023-02-21T12:08:22;101524.00;;;9.76;100.00
13068;BME280;6600;51.362;6.686;2023-02-21T12:25:16;101510.72;;;9.82;100.00
13068;BME280;6600;51.362;6.686;2023-02-21T12:28:14;101508.84;;;9.83;100.00
13068;BME280;6600;51.362;6.686;2023-02-21T12:30:42;101509.50;;;9.85;100.00
13068;BME280;6600;51.362;6.686;2023-02-21T12:42:20;101494.19;;;10.00;100.00
13068;BME280;6600;51.362;6.686;2023-02-21T12:47:27;101492.16;;;10.02;100.00
13068;BME280;6600;51.362;6.686;2023-02-21T12:50:06;101487.25;;;10.05;100.00
13068;BME280;6600;51.362;6.686;2023-02-21T12:52:42;101481.19;;;9.97;100.00
13068;BME280;6600;51.362;6.686;2023-02-21T12:55:19;101478.91;;;9.94;100.00
13068;BME280;6600;51.362;6.686;2023-02-21T13:05:59;101471.50;;;9.96;100.00
13068;BME280;6600;51.362;6.686;2023-02-21T13:08:30;101478.56;;;10.03;100.00
13068;BME280;6600;51.362;6.686;2023-02-21T13:11:17;101469.34;;;9.85;100.00
13068;BME280;6600;51.362;6.686;2023-02-21T13:13:46;101467.41;;;10.00;100.00
13068;BME280;6600;51.362;6.686;2023-02-21T13:16:12;101471.56;;;10.02;100.00
13068;BME280;6600;51.362;6.686;2023-02-21T13:24:12;101465.94;;;9.97;100.00
13068;BME280;6600;51.362;6.686;2023-02-21T13:29:40;101463.47;;;9.96;100.00
13068;BME280;6600;51.362;6.686;2023-02-21T13:32:11;101452.78;;;9.96;100.00
13068;BME280;6600;51.362;6.686;2023-02-21T13:34:41;101457.47;;;9.94;100.00
13068;BME280;6600;51.362;6.686;2023-02-21T13:37:14;101443.03;;;9.88;100.00
13068;BME280;6600;51.362;6.686;2023-02-21T13:39:44;101447.16;;;9.91;100.00
13068;BME280;6600;51.362;6.686;2023-02-21T13:42:25;101452.50;;;9.91;100.00
13068;BME280;6600;51.362;6.686;2023-02-21T13:50:49;101441.81;;;9.91;100.00
13068;BME280;6600;51.362;6.686;2023-02-21T13:53:28;101444.09;;;9.94;100.00
13068;BME280;6600;51.362;6.686;2023-02-21T13:58:42;101439.00;;;9.99;100.00
13068;BME280;6600;51.362;6.686;2023-02-21T14:01:41;101425.84;;;10.04;100.00
13068;BME280;6600;51.362;6.686;2023-02-21T14:07:10;101426.00;;;9.96;100.00
13068;BME280;6600;51.362;6.686;2023-02-21T14:09:39;101422.53;;;10.02;100.00
13068;BME280;6600;51.362;6.686;2023-02-21T14:12:06;101417.72;;;9.91;100.00
13068;BME280;6600;51.362;6.686;2023-02-21T14:14:34;101411.56;;;9.97;100.00
13068;BME280;6600;51.362;6.686;2023-02-21T14:17:09;101420.38;;;9.91;100.00
13068;BME280;6600;51.362;6.686;2023-02-21T14:19:39;101411.97;;;9.94;100.00
13068;BME280;6600;51.362;6.686;2023-02-21T14:22:15;101410.56;;;9.98;100.00
13068;BME280;6600;51.362;6.686;2023-02-21T14:24:47;101413.84;;;10.00;100.00
13068;BME280;6600;51.362;6.686;2023-02-21T14:29:41;101412.63;;;9.96;100.00
13068;BME280;6600;51.362;6.686;2023-02-21T14:37:03;101404.19;;;9.99;100.00
13068;BME280;6600;51.362;6.686;2023-02-21T14:39:33;101409.78;;;10.04;100.00
13068;BME280;6600;51.362;6.686;2023-02-21T14:42:18;101407.25;;;9.96;100.00
13068;BME280;6600;51.362;6.686;2023-02-21T14:50:16;101393.84;;;9.89;100.00
13068;BME280;6600;51.362;6.686;2023-02-21T14:52:54;101383.75;;;9.91;100.00
13068;BME280;6600;51.362;6.686;2023-02-21T14:57:58;101385.72;;;9.83;100.00
13068;BME280;6600;51.362;6.686;2023-02-21T15:00:45;101389.28;;;9.90;100.00
13068;BME280;6600;51.362;6.686;2023-02-21T15:03:20;101390.28;;;9.82;100.00
13068;BME280;6600;51.362;6.686;2023-02-21T15:05:52;101388.16;;;9.78;100.00
13068;BME280;6600;51.362;6.686;2023-02-21T15:08:23;101389.84;;;9.79;100.00
13068;BME280;6600;51.362;6.686;2023-02-21T15:10:51;101380.72;;;9.73;100.00
13068;BME280;6600;51.362;6.686;2023-02-21T15:13:27;101386.28;;;9.72;100.00
13068;BME280;6600;51.362;6.686;2023-02-21T15:15:59;101384.78;;;9.69;100.00
13068;BME280;6600;51.362;6.686;2023-02-21T15:18:27;101386.06;;;9.73;100.00
13068;BME280;6600;51.362;6.686;2023-02-21T15:23:41;101378.88;;;9.74;100.00
13068;BME280;6600;51.362;6.686;2023-02-21T15:26:23;101380.94;;;9.72;100.00